Bookmark and Share
Track history (hours):
 

Oceanographic research ship Gunnar Thorson (Denmark)

Detailed information on ship capabilities available from University of Delaware's Ocean Information Center.

Last reported at 2014-Apr-16 07:29 UTC. Time now 2014-Apr-16 07:45 UTC.
Position N 57°26' E 010°32'.

Length 56 m; draft 4.5 m.

Type: Military. MMSI: 219263000.

NotesDate/timePositionNaut miles runAvg speedWind from/ knotsBaromVisibWave heightAir tempDewpointWater temp
2014-Apr-16 07:29N 57°26' E 010°32'0 0.0
2014-Apr-16 06:33N 57°26' E 010°32'0 0.0
2014-Apr-16 05:31N 57°26' E 010°32'0 0.0
2014-Apr-16 04:25N 57°26' E 010°32'0 0.0
2014-Apr-16 03:26N 57°26' E 010°32'0 0.0
2014-Apr-16 02:27N 57°26' E 010°32'0 0.0
2014-Apr-16 01:30N 57°26' E 010°32'0 0.0
2014-Apr-16 00:31N 57°26' E 010°32'0 0.0
2014-Apr-15 23:31N 57°26' E 010°32'0 0.0
2014-Apr-15 22:32N 57°26' E 010°32'0 0.0
2014-Apr-15 21:33N 57°26' E 010°32'0 0.0
2014-Apr-15 20:30N 57°26' E 010°32'0 0.0
2014-Apr-15 19:31N 57°26' E 010°32'0 0.0
2014-Apr-15 18:29N 57°26' E 010°32'0 0.0
2014-Apr-15 17:29N 57°26' E 010°32'0 0.0
2014-Apr-15 16:03N 57°26' E 010°32'0 0.0
2014-Apr-15 00:31N 57°26' E 010°32'0 0.0
2014-Apr-14 23:29N 57°26' E 010°32'0 0.0
2014-Apr-14 17:30N 57°26' E 010°32'  
2014-Apr-11 19:32N 57°26' E 010°32'0 0.0
2014-Apr-11 16:22N 57°26' E 010°32'0 0.0
2014-Apr-11 05:25N 57°26' E 010°32'18 0.9
2014-Apr-10 10:08N 57°10' E 010°46'7 9.8
2014-Apr-10 09:28N 57°16' E 010°42'9 9.7
2014-Apr-10 08:30N 57°25' E 010°43'5 5.5
2014-Apr-10 07:34N 57°31' E 010°44'1110.5
2014-Apr-10 06:34N 57°41' E 010°42'4 3.9
2014-Apr-10 05:33N 57°43' E 010°36'0 0.0
2014-Apr-10 04:13N 57°43' E 010°36'0 0.0
2014-Apr-10 03:23N 57°43' E 010°36'0 0.0
2014-Apr-10 02:32N 57°43' E 010°36'0 0.0
2014-Apr-10 00:19N 57°43' E 010°36'0 0.0
2014-Apr-09 23:28N 57°43' E 010°36'0 0.0
2014-Apr-09 21:18N 57°43' E 010°36'0 0.0
2014-Apr-09 20:33N 57°43' E 010°36'0 0.0
2014-Apr-09 18:14N 57°43' E 010°36'0 0.0
2014-Apr-09 17:32N 57°43' E 010°36'0 0.0
2014-Apr-09 16:12N 57°43' E 010°36'4 6.3
2014-Apr-09 15:33N 57°39' E 010°38'1111.0
2014-Apr-09 14:33N 57°28' E 010°38'7 0.4
2014-Apr-08 22:30N 57°21' E 010°38'29 2.2
2014-Apr-08 09:13N 57°03' E 009°55'28 1.6
2014-Apr-07 15:29N 57°07' E 010°47'1010.9
2014-Apr-07 14:33N 57°17' E 010°42'7 6.6
2014-Apr-07 13:33N 57°23' E 010°39'  

Dump ship's entire track history

sailing weather and tide predictions

Gunnar Thorson — OUDU — position and weather